Hauptseite
METAR-TAF:

METAR-TAF

Flughäfen :

Grafenwöhr, Deutschland

Breite: 49-42N, Länge: 011-57E, Höhe: 415 m

Beobachtung

Neuester Wetterbericht von vor 36 Minuten, um 18:56 UTC
Windstille
Temperatur 18°C
Luftfeuchtigkeit 73%
Luftdruck 1019 hPa
Sichtweite 10 km oder mehr
Himmel klar

METAR: ETIC 051856Z AUTO 00000KT 9999 CLR 18/13 A3010 RMK AO2 SLP190 T01820126 $

Zeit: 21:32 (19:32 UTC)

Prognose

Neuester Wetterbericht von vor 1 Stunde und 32 Minuten, um 18:00 UTC
Gültige Prognose vom 05 um 18 UTC bis 06 um 24 UTC
Wind 6 kt aus unterschiedlichen Richtungen
Sichtweite 10 km oder mehr
Leicht bewölkt in der Höhe von 6000 ft
Zeitweise
vom 06 um 03 UTC bis 06 um 05 UTC
Sichtweite: 5000 m
feuchter Dunst

TAF: ETIC 051800Z 0518/0624 VRB06KT 9999 FEW060 QNH3009INS TEMPO 0603/0605 5000 BR TX27/0614Z TN09/0603Z

Wetterbeobachtungen und Prognosen von mehr als 4000 Flughäfen (METAR und TAF Bericht).

Die verfügbaren Stationen werden durch gelbe und rote Markierungen auf der Karte dargestellt.

Führen Sie die Maus auf sie, um den Namen der Station zu sehen.

Darauf klicken, um die Beobachtung von Wetterbeobachtungen und Prognosen zu sehen.

Um die Karte zu ändern : klicken Sie auf den grünen Tasten mit einem schwarzen Kreuz Zum Vergrößern, auf den grünen Button mit einem Gedankenstrich zu verkleinern, oder auf die grünen Pfeile für benachbarte Karten.


METAR-TAF: